sensor_id;sensor_type;location;lat;lon;timestamp;pressure;altitude;pressure_sealevel;temperature;humidity
34961;BME280;30789;52.030;7.110;2023-07-02T00:01:59;99905.00;;;16.33;83.51
34961;BME280;30789;52.030;7.110;2023-07-02T00:04:26;99897.69;;;16.26;84.01
34961;BME280;30789;52.030;7.110;2023-07-02T00:06:52;99891.31;;;16.26;83.85
34961;BME280;30789;52.030;7.110;2023-07-02T00:09:19;99889.56;;;16.32;84.04
34961;BME280;30789;52.030;7.110;2023-07-02T00:11:45;99888.53;;;16.26;83.84
34961;BME280;30789;52.030;7.110;2023-07-02T00:14:13;99881.53;;;16.21;84.24
34961;BME280;30789;52.030;7.110;2023-07-02T00:16:43;99881.31;;;16.28;83.86
34961;BME280;30789;52.030;7.110;2023-07-02T00:19:10;99882.31;;;16.22;83.77
34961;BME280;30789;52.030;7.110;2023-07-02T00:21:37;99877.28;;;16.17;84.54
34961;BME280;30789;52.030;7.110;2023-07-02T00:24:05;99874.06;;;16.18;84.12
34961;BME280;30789;52.030;7.110;2023-07-02T00:26:31;99867.19;;;16.23;84.20
34961;BME280;30789;52.030;7.110;2023-07-02T00:28:58;99871.19;;;16.22;84.85
34961;BME280;30789;52.030;7.110;2023-07-02T00:31:24;99867.97;;;16.23;84.21
34961;BME280;30789;52.030;7.110;2023-07-02T00:33:52;99862.06;;;16.21;84.50
34961;BME280;30789;52.030;7.110;2023-07-02T00:36:19;99861.06;;;16.15;84.78
34961;BME280;30789;52.030;7.110;2023-07-02T00:38:46;99858.59;;;16.17;85.14
34961;BME280;30789;52.030;7.110;2023-07-02T00:41:13;99865.72;;;16.18;85.23
34961;BME280;30789;52.030;7.110;2023-07-02T00:43:40;99861.97;;;16.25;85.41
34961;BME280;30789;52.030;7.110;2023-07-02T00:46:09;99863.19;;;16.24;85.94
34961;BME280;30789;52.030;7.110;2023-07-02T00:48:38;99861.38;;;16.17;86.29
34961;BME280;30789;52.030;7.110;2023-07-02T00:51:06;99859.72;;;16.20;86.73
34961;BME280;30789;52.030;7.110;2023-07-02T00:53:33;99857.72;;;16.20;86.88
34961;BME280;30789;52.030;7.110;2023-07-02T00:55:59;99849.97;;;16.28;87.03
34961;BME280;30789;52.030;7.110;2023-07-02T00:58:26;99856.41;;;16.25;87.51
34961;BME280;30789;52.030;7.110;2023-07-02T01:00:52;99855.53;;;16.28;87.21
34961;BME280;30789;52.030;7.110;2023-07-02T01:03:21;99859.81;;;16.16;88.08
34961;BME280;30789;52.030;7.110;2023-07-02T01:05:47;99849.38;;;16.20;88.38
34961;BME280;30789;52.030;7.110;2023-07-02T01:08:16;99852.94;;;16.21;88.46
34961;BME280;30789;52.030;7.110;2023-07-02T01:10:42;99854.75;;;16.27;88.21
34961;BME280;30789;52.030;7.110;2023-07-02T01:13:12;99838.59;;;16.22;88.41
34961;BME280;30789;52.030;7.110;2023-07-02T01:15:41;99849.28;;;16.24;88.64
34961;BME280;30789;52.030;7.110;2023-07-02T01:18:09;99856.28;;;16.28;88.50
34961;BME280;30789;52.030;7.110;2023-07-02T01:20:39;99860.28;;;16.27;88.79
34961;BME280;30789;52.030;7.110;2023-07-02T01:23:06;99862.97;;;16.31;88.39
34961;BME280;30789;52.030;7.110;2023-07-02T01:25:34;99854.75;;;16.27;88.92
34961;BME280;30789;52.030;7.110;2023-07-02T01:28:01;99858.63;;;16.30;88.69
34961;BME280;30789;52.030;7.110;2023-07-02T01:30:28;99869.19;;;16.35;88.12
34961;BME280;30789;52.030;7.110;2023-07-02T01:32:54;99856.19;;;16.32;88.01
34961;BME280;30789;52.030;7.110;2023-07-02T01:35:21;99852.63;;;16.31;88.18
34961;BME280;30789;52.030;7.110;2023-07-02T01:37:49;99854.63;;;16.31;88.39
34961;BME280;30789;52.030;7.110;2023-07-02T01:40:16;99863.75;;;16.31;87.75
34961;BME280;30789;52.030;7.110;2023-07-02T01:42:42;99862.09;;;16.34;87.53
34961;BME280;30789;52.030;7.110;2023-07-02T01:45:09;99860.97;;;16.31;87.63
34961;BME280;30789;52.030;7.110;2023-07-02T01:47:36;99866.06;;;16.33;87.63
34961;BME280;30789;52.030;7.110;2023-07-02T01:50:04;99864.88;;;16.34;86.75
34961;BME280;30789;52.030;7.110;2023-07-02T01:52:31;99867.97;;;16.36;86.90
34961;BME280;30789;52.030;7.110;2023-07-02T01:55:00;99865.84;;;16.27;87.33
34961;BME280;30789;52.030;7.110;2023-07-02T01:57:27;99867.66;;;16.34;86.74
34961;BME280;30789;52.030;7.110;2023-07-02T01:59:55;99862.19;;;16.30;86.90
34961;BME280;30789;52.030;7.110;2023-07-02T02:02:22;99871.44;;;16.40;86.03
34961;BME280;30789;52.030;7.110;2023-07-02T02:04:49;99870.31;;;16.37;86.37
34961;BME280;30789;52.030;7.110;2023-07-02T02:07:15;99865.34;;;16.45;85.93
34961;BME280;30789;52.030;7.110;2023-07-02T02:09:42;99874.22;;;16.40;86.31
34961;BME280;30789;52.030;7.110;2023-07-02T02:12:10;99903.91;;;16.30;86.50
34961;BME280;30789;52.030;7.110;2023-07-02T02:14:36;99925.19;;;16.08;83.39
34961;BME280;30789;52.030;7.110;2023-07-02T02:17:03;99919.44;;;15.87;79.14
34961;BME280;30789;52.030;7.110;2023-07-02T02:19:29;99912.31;;;15.57;79.23
34961;BME280;30789;52.030;7.110;2023-07-02T02:21:56;99923.50;;;15.54;78.33
34961;BME280;30789;52.030;7.110;2023-07-02T02:24:22;99921.53;;;15.38;79.59
34961;BME280;30789;52.030;7.110;2023-07-02T02:26:49;99918.97;;;15.27;79.42
34961;BME280;30789;52.030;7.110;2023-07-02T02:29:17;99911.16;;;15.22;80.09
34961;BME280;30789;52.030;7.110;2023-07-02T02:31:43;99900.19;;;15.19;79.96
34961;BME280;30789;52.030;7.110;2023-07-02T02:34:10;99903.28;;;15.05;80.77
34961;BME280;30789;52.030;7.110;2023-07-02T02:36:36;99913.34;;;15.15;82.17
34961;BME280;30789;52.030;7.110;2023-07-02T02:39:03;99910.75;;;15.08;81.82
34961;BME280;30789;52.030;7.110;2023-07-02T02:41:30;99903.91;;;15.12;82.02
34961;BME280;30789;52.030;7.110;2023-07-02T02:43:57;99905.81;;;15.15;82.18
34961;BME280;30789;52.030;7.110;2023-07-02T02:46:25;99902.84;;;15.06;82.86
34961;BME280;30789;52.030;7.110;2023-07-02T02:48:51;99906.84;;;15.05;83.60
34961;BME280;30789;52.030;7.110;2023-07-02T02:51:18;99909.16;;;15.07;84.17
34961;BME280;30789;52.030;7.110;2023-07-02T02:53:44;99922.09;;;15.13;84.67
34961;BME280;30789;52.030;7.110;2023-07-02T02:56:11;99915.34;;;15.14;85.10
34961;BME280;30789;52.030;7.110;2023-07-02T02:58:37;99908.66;;;15.12;84.91
34961;BME280;30789;52.030;7.110;2023-07-02T03:01:04;99910.31;;;15.09;85.36
34961;BME280;30789;52.030;7.110;2023-07-02T03:03:38;99908.22;;;15.13;85.96
34961;BME280;30789;52.030;7.110;2023-07-02T03:06:06;99903.81;;;15.16;86.43
34961;BME280;30789;52.030;7.110;2023-07-02T03:08:32;99911.06;;;15.10;86.62
34961;BME280;30789;52.030;7.110;2023-07-02T03:10:59;99917.84;;;15.09;87.36
34961;BME280;30789;52.030;7.110;2023-07-02T03:13:25;99919.22;;;15.01;87.57
34961;BME280;30789;52.030;7.110;2023-07-02T03:15:51;99926.25;;;15.05;86.56
34961;BME280;30789;52.030;7.110;2023-07-02T03:18:18;99937.72;;;15.07;85.65
34961;BME280;30789;52.030;7.110;2023-07-02T03:20:46;99940.56;;;15.04;85.97
34961;BME280;30789;52.030;7.110;2023-07-02T03:23:13;99942.16;;;15.05;86.03
34961;BME280;30789;52.030;7.110;2023-07-02T03:25:39;99945.25;;;15.07;84.89
34961;BME280;30789;52.030;7.110;2023-07-02T03:28:06;99946.47;;;15.06;84.91
34961;BME280;30789;52.030;7.110;2023-07-02T03:30:32;99956.03;;;15.05;84.24
34961;BME280;30789;52.030;7.110;2023-07-02T03:32:59;99959.47;;;15.09;84.36
34961;BME280;30789;52.030;7.110;2023-07-02T03:35:25;99968.31;;;15.04;84.26
34961;BME280;30789;52.030;7.110;2023-07-02T03:37:53;99957.22;;;15.04;83.65
34961;BME280;30789;52.030;7.110;2023-07-02T03:40:20;99963.72;;;14.97;84.19
34961;BME280;30789;52.030;7.110;2023-07-02T03:42:46;99961.03;;;14.94;84.84
34961;BME280;30789;52.030;7.110;2023-07-02T03:45:13;99969.34;;;14.94;85.11
34961;BME280;30789;52.030;7.110;2023-07-02T03:47:40;99970.56;;;14.93;85.19
34961;BME280;30789;52.030;7.110;2023-07-02T03:50:07;99975.06;;;14.87;85.81
34961;BME280;30789;52.030;7.110;2023-07-02T03:52:33;99976.63;;;14.88;86.16
34961;BME280;30789;52.030;7.110;2023-07-02T03:55:01;99979.91;;;14.83;86.32
34961;BME280;30789;52.030;7.110;2023-07-02T03:57:28;99975.41;;;14.89;86.50
34961;BME280;30789;52.030;7.110;2023-07-02T03:59:55;99975.59;;;14.98;85.69
34961;BME280;30789;52.030;7.110;2023-07-02T04:02:22;99980.53;;;14.90;85.45
34961;BME280;30789;52.030;7.110;2023-07-02T04:04:48;99985.22;;;14.93;85.16
34961;BME280;30789;52.030;7.110;2023-07-02T04:07:15;99994.44;;;15.06;85.00
34961;BME280;30789;52.030;7.110;2023-07-02T04:09:42;99990.19;;;15.02;85.21
34961;BME280;30789;52.030;7.110;2023-07-02T04:12:10;99993.66;;;15.06;84.22
34961;BME280;30789;52.030;7.110;2023-07-02T04:14:36;99987.75;;;15.04;83.71
34961;BME280;30789;52.030;7.110;2023-07-02T04:17:03;99987.31;;;15.05;82.93
34961;BME280;30789;52.030;7.110;2023-07-02T04:19:30;99989.13;;;14.96;82.62
34961;BME280;30789;52.030;7.110;2023-07-02T04:21:56;99988.34;;;14.95;82.68
34961;BME280;30789;52.030;7.110;2023-07-02T04:24:22;99982.00;;;14.95;82.20
34961;BME280;30789;52.030;7.110;2023-07-02T04:26:50;99994.50;;;15.03;81.43
34961;BME280;30789;52.030;7.110;2023-07-02T04:29:19;99996.59;;;14.99;81.01
34961;BME280;30789;52.030;7.110;2023-07-02T04:31:46;100002.72;;;14.90;80.74
34961;BME280;30789;52.030;7.110;2023-07-02T04:34:12;99998.47;;;14.86;81.68
34961;BME280;30789;52.030;7.110;2023-07-02T04:36:39;100009.13;;;14.87;80.79
34961;BME280;30789;52.030;7.110;2023-07-02T04:39:05;100003.31;;;14.82;81.61
34961;BME280;30789;52.030;7.110;2023-07-02T04:41:32;100009.63;;;14.82;81.77
34961;BME280;30789;52.030;7.110;2023-07-02T04:43:58;100007.63;;;14.83;82.05
34961;BME280;30789;52.030;7.110;2023-07-02T04:46:27;100014.41;;;14.82;82.51
34961;BME280;30789;52.030;7.110;2023-07-02T04:48:54;100011.78;;;14.75;81.63
34961;BME280;30789;52.030;7.110;2023-07-02T04:51:20;100016.47;;;14.78;82.02
34961;BME280;30789;52.030;7.110;2023-07-02T04:53:47;100022.09;;;14.74;80.51
34961;BME280;30789;52.030;7.110;2023-07-02T04:56:13;100018.09;;;14.75;80.61
34961;BME280;30789;52.030;7.110;2023-07-02T04:58:40;100029.13;;;14.79;80.12
34961;BME280;30789;52.030;7.110;2023-07-02T05:01:06;100013.34;;;14.76;79.59
34961;BME280;30789;52.030;7.110;2023-07-02T05:03:34;100018.38;;;14.81;78.49
34961;BME280;30789;52.030;7.110;2023-07-02T05:06:01;100023.44;;;14.86;78.26
34961;BME280;30789;52.030;7.110;2023-07-02T05:08:27;100016.38;;;14.81;78.38
34961;BME280;30789;52.030;7.110;2023-07-02T05:10:54;100023.91;;;14.81;78.42
34961;BME280;30789;52.030;7.110;2023-07-02T05:15:55;100021.00;;;14.88;77.29
34961;BME280;30789;52.030;7.110;2023-07-02T05:18:24;100017.44;;;14.87;76.97
34961;BME280;30789;52.030;7.110;2023-07-02T05:21:05;100033.00;;;15.01;76.87
34961;BME280;30789;52.030;7.110;2023-07-02T05:23:38;100032.75;;;15.11;76.43
34961;BME280;30789;52.030;7.110;2023-07-02T05:26:08;100033.13;;;15.13;76.51
34961;BME280;30789;52.030;7.110;2023-07-02T05:28:40;100031.41;;;15.19;76.21
34961;BME280;30789;52.030;7.110;2023-07-02T05:31:07;100039.47;;;15.30;75.86
34961;BME280;30789;52.030;7.110;2023-07-02T05:33:38;100035.34;;;15.38;74.69
34961;BME280;30789;52.030;7.110;2023-07-02T05:36:20;100032.44;;;15.45;74.40
34961;BME280;30789;52.030;7.110;2023-07-02T05:38:47;100046.22;;;15.49;73.49
34961;BME280;30789;52.030;7.110;2023-07-02T05:41:18;100045.50;;;15.61;72.65
34961;BME280;30789;52.030;7.110;2023-07-02T05:43:49;100043.88;;;15.63;72.72
34961;BME280;30789;52.030;7.110;2023-07-02T05:46:21;100043.09;;;15.63;73.26
34961;BME280;30789;52.030;7.110;2023-07-02T05:48:50;100047.69;;;15.69;73.41
34961;BME280;30789;52.030;7.110;2023-07-02T05:51:23;100051.09;;;15.77;73.65
34961;BME280;30789;52.030;7.110;2023-07-02T05:53:51;100051.25;;;15.86;72.55
34961;BME280;30789;52.030;7.110;2023-07-02T05:56:20;100052.31;;;15.76;72.78
34961;BME280;30789;52.030;7.110;2023-07-02T05:58:48;100052.03;;;15.70;72.27
34961;BME280;30789;52.030;7.110;2023-07-02T06:01:17;100067.84;;;15.73;72.15
34961;BME280;30789;52.030;7.110;2023-07-02T06:03:48;100064.53;;;15.78;73.64
34961;BME280;30789;52.030;7.110;2023-07-02T06:06:15;100061.94;;;15.87;70.80
34961;BME280;30789;52.030;7.110;2023-07-02T06:08:45;100060.91;;;15.97;71.40
34961;BME280;30789;52.030;7.110;2023-07-02T06:11:14;100068.69;;;16.02;71.49
34961;BME280;30789;52.030;7.110;2023-07-02T06:13:44;100071.66;;;15.95;70.20
34961;BME280;30789;52.030;7.110;2023-07-02T06:16:15;100066.88;;;15.96;69.07
34961;BME280;30789;52.030;7.110;2023-07-02T06:18:46;100083.28;;;16.06;70.64
34961;BME280;30789;52.030;7.110;2023-07-02T06:21:17;100083.78;;;16.17;70.83
34961;BME280;30789;52.030;7.110;2023-07-02T06:23:47;100069.28;;;16.26;69.90
34961;BME280;30789;52.030;7.110;2023-07-02T06:26:16;100076.31;;;16.30;68.90
34961;BME280;30789;52.030;7.110;2023-07-02T06:28:42;100086.84;;;16.23;68.65
34961;BME280;30789;52.030;7.110;2023-07-02T06:31:10;100083.69;;;16.21;68.35
34961;BME280;30789;52.030;7.110;2023-07-02T06:33:38;100081.94;;;16.27;67.84
34961;BME280;30789;52.030;7.110;2023-07-02T06:36:05;100083.88;;;16.14;68.41
34961;BME280;30789;52.030;7.110;2023-07-02T06:38:31;100089.44;;;16.14;68.77
34961;BME280;30789;52.030;7.110;2023-07-02T06:40:59;100091.78;;;16.15;68.64
34961;BME280;30789;52.030;7.110;2023-07-02T06:43:26;100094.47;;;16.19;68.39
34961;BME280;30789;52.030;7.110;2023-07-02T06:45:52;100094.03;;;16.20;68.99
34961;BME280;30789;52.030;7.110;2023-07-02T06:48:19;100100.44;;;16.33;68.16
34961;BME280;30789;52.030;7.110;2023-07-02T06:50:47;100101.41;;;16.43;68.74
34961;BME280;30789;52.030;7.110;2023-07-02T06:53:13;100098.53;;;16.46;67.75
34961;BME280;30789;52.030;7.110;2023-07-02T06:55:40;100094.69;;;16.56;65.52
34961;BME280;30789;52.030;7.110;2023-07-02T06:58:08;100108.00;;;16.77;66.25
34961;BME280;30789;52.030;7.110;2023-07-02T07:00:34;100113.97;;;16.92;66.20
34961;BME280;30789;52.030;7.110;2023-07-02T07:03:02;100114.19;;;16.97;64.83
34961;BME280;30789;52.030;7.110;2023-07-02T07:05:29;100118.84;;;16.88;63.66
34961;BME280;30789;52.030;7.110;2023-07-02T07:07:56;100113.47;;;16.81;63.63
34961;BME280;30789;52.030;7.110;2023-07-02T07:10:22;100124.25;;;16.79;63.44
34961;BME280;30789;52.030;7.110;2023-07-02T07:12:49;100131.94;;;16.75;64.05
34961;BME280;30789;52.030;7.110;2023-07-02T07:15:17;100126.88;;;16.98;64.92
34961;BME280;30789;52.030;7.110;2023-07-02T07:17:43;100127.94;;;17.04;63.77
34961;BME280;30789;52.030;7.110;2023-07-02T07:20:10;100119.69;;;17.26;64.83
34961;BME280;30789;52.030;7.110;2023-07-02T07:22:38;100122.84;;;17.41;62.02
34961;BME280;30789;52.030;7.110;2023-07-02T07:25:05;100126.41;;;17.29;61.33
34961;BME280;30789;52.030;7.110;2023-07-02T07:27:31;100134.16;;;17.08;61.17
34961;BME280;30789;52.030;7.110;2023-07-02T07:29:58;100139.06;;;17.04;60.74
34961;BME280;30789;52.030;7.110;2023-07-02T07:32:25;100139.06;;;17.17;61.60
34961;BME280;30789;52.030;7.110;2023-07-02T07:34:55;100145.38;;;17.34;61.84
34961;BME280;30789;52.030;7.110;2023-07-02T07:37:22;100137.72;;;17.50;62.23
34961;BME280;30789;52.030;7.110;2023-07-02T07:39:50;100138.84;;;17.65;58.67
34961;BME280;30789;52.030;7.110;2023-07-02T07:42:17;100138.63;;;17.85;59.62
34961;BME280;30789;52.030;7.110;2023-07-02T07:44:44;100140.41;;;17.79;57.41
34961;BME280;30789;52.030;7.110;2023-07-02T07:47:12;100142.53;;;17.75;56.74
34961;BME280;30789;52.030;7.110;2023-07-02T07:49:40;100144.75;;;17.67;57.69
34961;BME280;30789;52.030;7.110;2023-07-02T07:52:07;100146.41;;;17.65;56.61
34961;BME280;30789;52.030;7.110;2023-07-02T07:54:35;100153.56;;;17.53;55.97
34961;BME280;30789;52.030;7.110;2023-07-02T07:57:02;100151.44;;;17.57;56.39
34961;BME280;30789;52.030;7.110;2023-07-02T07:59:29;100152.53;;;17.72;57.15
34961;BME280;30789;52.030;7.110;2023-07-02T08:01:55;100155.34;;;17.72;55.84
34961;BME280;30789;52.030;7.110;2023-07-02T08:04:22;100161.03;;;17.69;56.25
34961;BME280;30789;52.030;7.110;2023-07-02T08:06:50;100156.56;;;17.71;57.06
34961;BME280;30789;52.030;7.110;2023-07-02T08:09:16;100161.00;;;17.81;57.22
34961;BME280;30789;52.030;7.110;2023-07-02T08:11:43;100156.44;;;18.00;56.81
34961;BME280;30789;52.030;7.110;2023-07-02T08:14:10;100168.28;;;18.16;56.25
34961;BME280;30789;52.030;7.110;2023-07-02T08:16:36;100162.78;;;18.25;54.51
34961;BME280;30789;52.030;7.110;2023-07-02T08:19:03;100168.16;;;18.07;53.97
34961;BME280;30789;52.030;7.110;2023-07-02T08:21:29;100178.88;;;17.96;54.19
34961;BME280;30789;52.030;7.110;2023-07-02T08:23:57;100173.16;;;18.00;54.00
34961;BME280;30789;52.030;7.110;2023-07-02T08:26:24;100169.84;;;17.92;53.84
34961;BME280;30789;52.030;7.110;2023-07-02T08:28:50;100177.19;;;17.99;54.37
34961;BME280;30789;52.030;7.110;2023-07-02T08:31:17;100177.75;;;18.06;54.19
34961;BME280;30789;52.030;7.110;2023-07-02T08:33:45;100178.00;;;17.99;53.80
34961;BME280;30789;52.030;7.110;2023-07-02T08:36:11;100188.19;;;18.27;51.21
34961;BME280;30789;52.030;7.110;2023-07-02T08:38:39;100177.84;;;18.40;51.89
34961;BME280;30789;52.030;7.110;2023-07-02T08:41:09;100190.44;;;18.57;52.24
34961;BME280;30789;52.030;7.110;2023-07-02T08:43:37;100182.97;;;18.42;51.80
34961;BME280;30789;52.030;7.110;2023-07-02T08:46:04;100196.59;;;18.15;50.87
34961;BME280;30789;52.030;7.110;2023-07-02T08:48:32;100192.31;;;18.35;51.12
34961;BME280;30789;52.030;7.110;2023-07-02T08:50:59;100199.81;;;18.51;50.83
34961;BME280;30789;52.030;7.110;2023-07-02T08:53:25;100197.28;;;18.44;50.80
34961;BME280;30789;52.030;7.110;2023-07-02T08:55:55;100207.19;;;18.45;50.97
34961;BME280;30789;52.030;7.110;2023-07-02T08:58:22;100187.03;;;18.62;51.06
34961;BME280;30789;52.030;7.110;2023-07-02T09:01:05;100198.94;;;18.88;51.21
34961;BME280;30789;52.030;7.110;2023-07-02T09:03:32;100194.84;;;19.02;50.54
34961;BME280;30789;52.030;7.110;2023-07-02T09:05:59;100211.06;;;18.94;48.83
34961;BME280;30789;52.030;7.110;2023-07-02T09:08:27;100192.66;;;18.84;49.52
34961;BME280;30789;52.030;7.110;2023-07-02T09:10:54;100201.09;;;18.72;50.27
34961;BME280;30789;52.030;7.110;2023-07-02T09:13:41;100204.84;;;18.56;50.60
34961;BME280;30789;52.030;7.110;2023-07-02T09:16:08;100202.06;;;18.43;50.77
34961;BME280;30789;52.030;7.110;2023-07-02T09:18:35;100197.72;;;18.17;50.95
34961;BME280;30789;52.030;7.110;2023-07-02T09:21:01;100206.88;;;18.18;51.54
34961;BME280;30789;52.030;7.110;2023-07-02T09:23:34;100209.41;;;18.25;52.36
34961;BME280;30789;52.030;7.110;2023-07-02T09:26:01;100214.09;;;18.28;52.19
34961;BME280;30789;52.030;7.110;2023-07-02T09:28:28;100203.41;;;18.01;51.67
34961;BME280;30789;52.030;7.110;2023-07-02T09:30:57;100197.13;;;18.35;51.97
34961;BME280;30789;52.030;7.110;2023-07-02T09:33:24;100204.84;;;18.56;50.33
34961;BME280;30789;52.030;7.110;2023-07-02T09:35:51;100197.56;;;18.33;49.33
34961;BME280;30789;52.030;7.110;2023-07-02T09:38:19;100209.81;;;18.61;49.79
34961;BME280;30789;52.030;7.110;2023-07-02T09:40:47;100202.66;;;18.73;48.38
34961;BME280;30789;52.030;7.110;2023-07-02T09:43:15;100208.03;;;19.01;48.14
34961;BME280;30789;52.030;7.110;2023-07-02T09:45:43;100231.78;;;19.61;46.45
34961;BME280;30789;52.030;7.110;2023-07-02T09:48:14;100218.00;;;19.24;45.74
34961;BME280;30789;52.030;7.110;2023-07-02T09:50:42;100204.53;;;19.10;47.65
34961;BME280;30789;52.030;7.110;2023-07-02T09:53:10;100209.91;;;19.04;47.09
34961;BME280;30789;52.030;7.110;2023-07-02T09:55:36;100214.88;;;18.88;47.68
34961;BME280;30789;52.030;7.110;2023-07-02T09:58:03;100211.81;;;18.73;48.41
34961;BME280;30789;52.030;7.110;2023-07-02T10:00:29;100211.69;;;18.77;48.27
34961;BME280;30789;52.030;7.110;2023-07-02T10:02:56;100214.88;;;18.88;48.91
34961;BME280;30789;52.030;7.110;2023-07-02T10:05:27;100223.31;;;18.75;49.47
34961;BME280;30789;52.030;7.110;2023-07-02T10:07:53;100216.16;;;18.74;49.97
34961;BME280;30789;52.030;7.110;2023-07-02T10:10:30;100223.88;;;18.70;49.98
34961;BME280;30789;52.030;7.110;2023-07-02T10:12:57;100228.34;;;18.67;49.19
34961;BME280;30789;52.030;7.110;2023-07-02T10:15:25;100230.56;;;18.73;49.02
34961;BME280;30789;52.030;7.110;2023-07-02T10:17:55;100230.78;;;18.78;47.65
34961;BME280;30789;52.030;7.110;2023-07-02T10:20:33;100221.88;;;19.26;46.23
34961;BME280;30789;52.030;7.110;2023-07-02T10:23:00;100236.22;;;20.42;43.42
34961;BME280;30789;52.030;7.110;2023-07-02T10:25:27;100228.72;;;21.23;40.74
34961;BME280;30789;52.030;7.110;2023-07-02T10:27:55;100236.75;;;21.75;39.58
34961;BME280;30789;52.030;7.110;2023-07-02T10:30:30;100237.63;;;22.09;39.18
34961;BME280;30789;52.030;7.110;2023-07-02T10:33:07;100232.28;;;22.43;39.58
34961;BME280;30789;52.030;7.110;2023-07-02T10:35:35;100244.88;;;21.73;39.25
34961;BME280;30789;52.030;7.110;2023-07-02T10:38:02;100235.06;;;21.78;38.83
34961;BME280;30789;52.030;7.110;2023-07-02T10:40:31;100224.91;;;22.22;39.38
34961;BME280;30789;52.030;7.110;2023-07-02T10:42:58;100233.47;;;22.60;39.17
34961;BME280;30789;52.030;7.110;2023-07-02T10:45:35;100237.69;;;22.23;38.87
34961;BME280;30789;52.030;7.110;2023-07-02T10:48:03;100247.72;;;21.37;40.37
34961;BME280;30789;52.030;7.110;2023-07-02T10:50:31;100245.34;;;20.91;41.17
34961;BME280;30789;52.030;7.110;2023-07-02T10:52:59;100254.00;;;20.17;43.13
34961;BME280;30789;52.030;7.110;2023-07-02T10:55:27;100256.34;;;19.66;43.93
34961;BME280;30789;52.030;7.110;2023-07-02T10:58:04;100249.03;;;20.79;41.55
34961;BME280;30789;52.030;7.110;2023-07-02T11:00:30;100247.16;;;22.67;38.16
34961;BME280;30789;52.030;7.110;2023-07-02T11:02:57;100238.44;;;22.33;36.25
34961;BME280;30789;52.030;7.110;2023-07-02T11:05:24;100245.63;;;21.83;38.54
34961;BME280;30789;52.030;7.110;2023-07-02T11:07:50;100264.84;;;21.21;40.95
34961;BME280;30789;52.030;7.110;2023-07-02T11:10:24;100252.31;;;22.36;39.90
34961;BME280;30789;52.030;7.110;2023-07-02T11:12:51;100257.00;;;23.33;38.92
34961;BME280;30789;52.030;7.110;2023-07-02T11:15:18;100253.53;;;23.15;38.45
34961;BME280;30789;52.030;7.110;2023-07-02T11:17:44;100249.81;;;24.49;37.23
34961;BME280;30789;52.030;7.110;2023-07-02T11:20:13;100261.81;;;24.78;34.02
34961;BME280;30789;52.030;7.110;2023-07-02T11:22:40;100254.91;;;23.43;35.37
34961;BME280;30789;52.030;7.110;2023-07-02T11:25:11;100255.28;;;22.33;36.54
34961;BME280;30789;52.030;7.110;2023-07-02T11:27:40;100261.03;;;21.87;38.54
34961;BME280;30789;52.030;7.110;2023-07-02T11:30:07;100268.41;;;21.31;40.56
34961;BME280;30789;52.030;7.110;2023-07-02T11:32:49;100260.41;;;20.75;39.59
34961;BME280;30789;52.030;7.110;2023-07-02T11:35:16;100266.81;;;20.85;39.66
34961;BME280;30789;52.030;7.110;2023-07-02T11:37:42;100257.75;;;21.98;37.04
34961;BME280;30789;52.030;7.110;2023-07-02T11:40:10;100258.13;;;21.64;37.62
34961;BME280;30789;52.030;7.110;2023-07-02T11:42:37;100263.84;;;20.79;39.00
34961;BME280;30789;52.030;7.110;2023-07-02T11:45:06;100251.91;;;20.39;40.80
34961;BME280;30789;52.030;7.110;2023-07-02T11:47:33;100261.22;;;20.36;41.52
34961;BME280;30789;52.030;7.110;2023-07-02T11:50:00;100270.75;;;21.32;38.77
34961;BME280;30789;52.030;7.110;2023-07-02T11:52:26;100258.31;;;21.33;37.38
34961;BME280;30789;52.030;7.110;2023-07-02T11:54:53;100259.50;;;21.68;36.53
34961;BME280;30789;52.030;7.110;2023-07-02T11:57:20;100250.47;;;22.89;34.56
34961;BME280;30789;52.030;7.110;2023-07-02T11:59:46;100252.38;;;23.07;34.60
34961;BME280;30789;52.030;7.110;2023-07-02T12:02:15;100253.75;;;23.11;35.55
34961;BME280;30789;52.030;7.110;2023-07-02T12:04:42;100257.16;;;22.68;36.04
34961;BME280;30789;52.030;7.110;2023-07-02T12:07:08;100259.41;;;22.55;35.52
34961;BME280;30789;52.030;7.110;2023-07-02T12:09:35;100263.94;;;23.62;33.96
34961;BME280;30789;52.030;7.110;2023-07-02T12:12:03;100266.63;;;22.38;35.16
34961;BME280;30789;52.030;7.110;2023-07-02T12:14:29;100267.25;;;22.01;35.99
34961;BME280;30789;52.030;7.110;2023-07-02T12:16:56;100265.72;;;22.00;37.91
34961;BME280;30789;52.030;7.110;2023-07-02T12:19:24;100259.72;;;23.28;35.86
34961;BME280;30789;52.030;7.110;2023-07-02T12:21:50;100262.88;;;23.59;34.38
34961;BME280;30789;52.030;7.110;2023-07-02T12:24:17;100252.78;;;22.91;35.13
34961;BME280;30789;52.030;7.110;2023-07-02T12:26:43;100259.59;;;22.10;36.75
34961;BME280;30789;52.030;7.110;2023-07-02T12:29:10;100263.66;;;22.00;38.43
34961;BME280;30789;52.030;7.110;2023-07-02T12:31:37;100255.16;;;22.60;37.65
34961;BME280;30789;52.030;7.110;2023-07-02T12:34:03;100262.28;;;22.70;35.54
34961;BME280;30789;52.030;7.110;2023-07-02T12:36:31;100272.44;;;22.35;37.09
34961;BME280;30789;52.030;7.110;2023-07-02T12:38:57;100276.88;;;22.18;36.83
34961;BME280;30789;52.030;7.110;2023-07-02T12:41:24;100275.78;;;22.57;35.25
34961;BME280;30789;52.030;7.110;2023-07-02T12:43:51;100284.50;;;22.59;35.16
34961;BME280;30789;52.030;7.110;2023-07-02T12:46:17;100270.31;;;22.62;35.37
34961;BME280;30789;52.030;7.110;2023-07-02T12:48:44;100274.34;;;22.29;35.88
34961;BME280;30789;52.030;7.110;2023-07-02T12:51:10;100283.97;;;21.95;36.56
34961;BME280;30789;52.030;7.110;2023-07-02T12:53:40;100280.63;;;22.56;37.06
34961;BME280;30789;52.030;7.110;2023-07-02T12:56:06;100276.09;;;23.29;36.17
34961;BME280;30789;52.030;7.110;2023-07-02T12:58:33;100283.09;;;23.10;35.54